Time;durP1;ratioP1;P1;durP2;ratioP2;P2;SDS_P1;SDS_P2;PMS_P1;PMS_P2;Temp;Humidity;BMP_temperature;BMP_pressure;BME280_temperature;BME280_humidity;BME280_pressure;Samples;Min_cycle;Max_cycle;Signal;HPM_P1;HPM_P2
2024/02/18 00:01:47;;;;;;;18.55;9.50;;;;;;;8.92;87.58;102719.97;5061055;28;20092;-80
2024/02/18 00:04:13;;;;;;;13.80;9.32;;;;;;;8.91;87.57;102719.13;5061304;28;20099;-80
2024/02/18 00:06:40;;;;;;;15.40;9.57;;;;;;;8.85;87.71;102714.13;5061564;28;20056;-80
2024/02/18 00:09:08;;;;;;;16.10;9.35;;;;;;;8.83;87.76;102713.34;5060707;28;20053;-80
2024/02/18 00:11:35;;;;;;;15.75;9.40;;;;;;;8.86;87.60;102713.19;5060300;28;20075;-80
2024/02/18 00:14:01;;;;;;;19.73;10.32;;;;;;;8.78;88.37;102708.25;5057165;28;20143;-82
2024/02/18 00:16:28;;;;;;;13.43;10.13;;;;;;;8.79;88.55;102715.25;5058817;28;20108;-81
2024/02/18 00:18:56;;;;;;;16.10;10.43;;;;;;;8.79;88.83;102712.63;5052402;28;20048;-80
2024/02/18 00:21:23;;;;;;;13.90;9.38;;;;;;;8.79;88.76;102715.25;5059183;28;20131;-81
2024/02/18 00:44:19;;;;;;;14.38;9.35;;;;;;;8.80;88.04;102701.16;4954527;29;20155;-80
2024/02/18 00:46:48;;;;;;;13.57;8.90;;;;;;;8.86;87.82;102694.72;4989410;22;20462;-79
2024/02/18 00:49:14;;;;;;;16.55;9.60;;;;;;;8.83;87.54;102694.84;5032467;28;20050;-80
2024/02/18 00:51:41;;;;;;;18.42;9.85;;;;;;;8.81;87.40;102684.38;5034783;28;20393;-79
2024/02/18 00:54:08;;;;;;;15.98;9.52;;;;;;;8.76;87.93;102685.53;5037203;28;20053;-80
2024/02/18 00:56:34;;;;;;;18.05;11.75;;;;;;;8.75;87.31;102684.69;5036579;28;20073;-81
2024/02/18 00:59:01;;;;;;;13.57;9.77;;;;;;;8.77;87.65;102684.59;5036546;28;20128;-79
2024/02/18 01:01:27;;;;;;;15.93;10.50;;;;;;;8.79;87.40;102677.44;5037116;28;20081;-81
2024/02/18 01:03:55;;;;;;;15.35;10.98;;;;;;;8.80;87.46;102682.66;5034896;28;20132;-80
2024/02/18 01:06:22;;;;;;;17.35;11.38;;;;;;;8.82;87.21;102680.81;5037349;28;20049;-81
2024/02/18 01:08:49;;;;;;;15.85;10.70;;;;;;;8.82;87.51;102679.94;5038676;28;20105;-81
2024/02/18 01:11:16;;;;;;;16.20;10.88;;;;;;;8.79;87.92;102680.06;5038970;28;20084;-81
2024/02/18 01:13:42;;;;;;;19.67;11.57;;;;;;;8.83;87.84;102677.22;5039187;28;20455;-79
2024/02/18 01:16:09;;;;;;;19.48;11.73;;;;;;;8.85;87.83;102679.81;5036888;28;20056;-80
2024/02/18 01:18:39;;;;;;;15.63;10.93;;;;;;;8.80;88.46;102681.81;5036456;28;20073;-80
2024/02/18 01:21:07;;;;;;;15.13;11.52;;;;;;;8.77;88.43;102677.53;5036106;28;20136;-80
2024/02/18 01:23:34;;;;;;;19.50;11.95;;;;;;;8.81;88.52;102668.53;5036772;28;20079;-80
2024/02/18 01:26:00;;;;;;;19.70;11.48;;;;;;;8.75;88.37;102670.59;5037000;28;20105;-80
2024/02/18 01:28:27;;;;;;;17.55;11.18;;;;;;;8.78;88.95;102667.81;5037112;28;20325;-80
2024/02/18 01:30:54;;;;;;;18.27;12.82;;;;;;;8.79;88.71;102677.44;5037057;28;20077;-79
2024/02/18 01:33:21;;;;;;;22.08;12.20;;;;;;;8.77;89.18;102672.25;5038948;28;20463;-78
2024/02/18 01:35:48;;;;;;;19.88;11.88;;;;;;;8.75;88.94;102670.59;5036241;28;20075;-81
2024/02/18 01:38:16;;;;;;;18.58;12.68;;;;;;;8.74;89.17;102671.53;5032726;28;20080;-79
2024/02/18 01:40:42;;;;;;;20.75;12.50;;;;;;;8.71;89.32;102661.13;5031754;28;20129;-80
2024/02/18 01:43:09;;;;;;;22.08;13.05;;;;;;;8.65;88.78;102659.59;5036446;28;20085;-81
2024/02/18 01:45:36;;;;;;;20.33;12.55;;;;;;;8.66;88.94;102657.81;5036883;28;20377;-80
2024/02/18 01:48:02;;;;;;;19.75;13.15;;;;;;;8.68;88.83;102654.19;5036347;28;20234;-81
2024/02/18 01:50:30;;;;;;;18.40;12.52;;;;;;;8.63;88.87;102645.66;5036533;28;20129;-80
2024/02/18 01:52:56;;;;;;;21.25;12.48;;;;;;;8.63;88.93;102644.78;5025781;28;20554;-77
2024/02/18 01:55:26;;;;;;;20.30;12.90;;;;;;;8.63;88.71;102644.78;5030996;28;20459;-77
2024/02/18 01:57:53;;;;;;;21.92;14.20;;;;;;;8.63;88.72;102642.16;5030849;28;20068;-80
2024/02/18 02:00:20;;;;;;;17.80;12.23;;;;;;;8.59;88.76;102641.44;5031376;28;20041;-77
2024/02/18 02:02:49;;;;;;;18.63;12.88;;;;;;;8.55;88.94;102635.44;5030365;28;20128;-77
2024/02/18 02:05:20;;;;;;;18.73;12.90;;;;;;;8.53;88.90;102632.03;5030644;28;20053;-78
2024/02/18 02:07:48;;;;;;;19.45;13.00;;;;;;;8.50;89.56;102620.75;5031285;28;20140;-77
2024/02/18 02:10:15;;;;;;;18.15;12.50;;;;;;;8.48;89.20;102617.31;5031377;28;20570;-78
2024/02/18 02:12:43;;;;;;;21.80;12.15;;;;;;;8.44;88.94;102619.28;5031133;28;20107;-79
2024/02/18 02:15:10;;;;;;;22.90;13.07;;;;;;;8.39;89.15;102618.59;5030740;28;20045;-79
2024/02/18 02:17:38;;;;;;;19.67;11.90;;;;;;;8.34;88.66;102625.84;5031322;28;20410;-79
2024/02/18 02:20:07;;;;;;;17.88;12.20;;;;;;;8.35;88.05;102617.03;5030939;28;20056;-78
2024/02/18 02:22:34;;;;;;;17.30;11.82;;;;;;;8.40;87.99;102620.34;5030875;28;20127;-79
2024/02/18 02:25:03;;;;;;;17.88;12.07;;;;;;;8.33;88.01;102622.34;5034813;28;20092;-79
2024/02/18 02:27:35;;;;;;;18.95;11.60;;;;;;;8.34;86.83;102610.88;5031278;28;20125;-78
2024/02/18 02:30:04;;;;;;;19.10;11.60;;;;;;;8.25;87.15;102605.16;5028773;28;20116;-78
2024/02/18 02:32:31;;;;;;;18.35;11.95;;;;;;;8.19;87.37;102601.03;5030646;28;20046;-79
2024/02/18 02:34:58;;;;;;;17.20;10.90;;;;;;;8.12;86.84;102610.13;5030528;28;20129;-78
2024/02/18 02:37:25;;;;;;;19.85;11.00;;;;;;;8.13;86.72;102611.03;5031010;28;20152;-78
2024/02/18 02:39:52;;;;;;;16.35;11.30;;;;;;;8.08;86.00;102605.91;5032206;28;20073;-78
2024/02/18 02:42:18;;;;;;;13.70;10.60;;;;;;;7.97;86.20;102595.88;5031599;28;20547;-77
2024/02/18 02:44:45;;;;;;;15.38;11.43;;;;;;;7.92;87.22;102607.56;5033750;28;20081;-77
2024/02/18 02:47:13;;;;;;;19.40;10.75;;;;;;;7.91;86.86;102601.44;5032763;28;20050;-77
2024/02/18 02:49:40;;;;;;;18.65;10.43;;;;;;;7.89;87.35;102594.50;5030134;28;20133;-77
2024/02/18 02:52:06;;;;;;;16.42;10.55;;;;;;;7.88;86.45;102593.66;5030584;28;20141;-79
2024/02/18 02:54:33;;;;;;;14.73;10.50;;;;;;;7.89;84.94;102589.22;5030570;28;20061;-77
2024/02/18 02:57:00;;;;;;;13.82;10.60;;;;;;;7.86;85.34;102579.69;5029628;28;20132;-79
2024/02/18 02:59:26;;;;;;;15.32;10.10;;;;;;;7.97;84.30;102580.06;5029485;28;20136;-76
2024/02/18 03:01:53;;;;;;;13.77;9.10;;;;;;;7.93;84.21;102588.16;5030066;28;20088;-77
2024/02/18 03:04:21;;;;;;;19.75;10.07;;;;;;;8.00;83.57;102589.63;5030435;28;20303;-78
2024/02/18 03:06:47;;;;;;;15.80;9.40;;;;;;;7.97;83.90;102598.50;5029924;28;20391;-77
2024/02/18 03:09:14;;;;;;;15.32;10.40;;;;;;;7.95;84.31;102591.59;5026913;28;20136;-76
2024/02/18 03:11:41;;;;;;;14.05;9.85;;;;;;;7.97;83.89;102590.59;5028206;28;20050;-77
2024/02/18 03:14:07;;;;;;;16.50;9.60;;;;;;;8.01;83.32;102589.53;5027695;28;20077;-79
2024/02/18 03:16:34;;;;;;;17.17;9.77;;;;;;;8.03;83.31;102592.94;5040519;28;20099;-80
2024/02/18 03:19:04;;;;;;;14.45;9.82;;;;;;;8.00;82.73;102595.75;5039572;28;20049;-80
2024/02/18 03:21:32;;;;;;;15.20;9.85;;;;;;;8.02;83.02;102593.03;5039632;28;20050;-79
2024/02/18 03:23:58;;;;;;;13.07;9.50;;;;;;;8.02;82.56;102582.47;5039307;28;20085;-80
2024/02/18 03:26:26;;;;;;;14.07;9.40;;;;;;;8.03;82.17;102582.41;5039346;28;20053;-79
2024/02/18 03:28:52;;;;;;;14.60;9.85;;;;;;;8.11;82.39;102582.91;5039234;28;20494;-79
2024/02/18 03:31:19;;;;;;;15.15;10.18;;;;;;;8.07;81.77;102596.31;5039811;28;20103;-79
2024/02/18 03:33:46;;;;;;;14.95;9.93;;;;;;;7.99;82.70;102599.31;5038923;28;20431;-78
2024/02/18 03:36:13;;;;;;;15.10;9.30;;;;;;;7.91;83.40;102596.16;5035694;28;20132;-78
2024/02/18 03:38:41;;;;;;;12.90;9.55;;;;;;;7.94;82.78;102590.72;5038845;28;20151;-80
2024/02/18 03:41:08;;;;;;;15.70;9.75;;;;;;;7.96;81.94;102594.16;5038488;28;20133;-80
2024/02/18 03:43:35;;;;;;;15.13;9.85;;;;;;;7.94;81.84;102582.81;5038674;28;20053;-79
2024/02/18 03:46:02;;;;;;;15.77;10.00;;;;;;;7.97;81.36;102582.69;5037850;28;20119;-80
2024/02/18 03:48:29;;;;;;;16.27;10.60;;;;;;;8.00;80.98;102585.19;5039310;28;20566;-79
2024/02/18 03:50:56;;;;;;;17.27;9.70;;;;;;;7.97;80.73;102584.47;5038837;28;20092;-79
2024/02/18 03:53:22;;;;;;;14.88;9.68;;;;;;;7.85;82.32;102585.88;5039634;28;20061;-81
2024/02/18 03:55:50;;;;;;;14.90;9.63;;;;;;;7.78;82.19;102595.84;5038936;28;20149;-81
2024/02/18 03:58:17;;;;;;;13.88;9.43;;;;;;;7.82;82.18;102586.03;5038470;28;20093;-80
2024/02/18 04:00:46;;;;;;;13.90;9.70;;;;;;;7.81;81.72;102581.66;5038514;28;20080;-80
2024/02/18 04:03:13;;;;;;;14.90;10.43;;;;;;;7.75;82.34;102571.41;5038586;28;20494;-80
2024/02/18 04:05:40;;;;;;;16.15;10.07;;;;;;;7.78;82.04;102572.13;5037971;28;20045;-79
2024/02/18 04:08:06;;;;;;;18.13;9.82;;;;;;;7.72;82.16;102568.88;5041798;28;20049;-80
2024/02/18 04:10:33;;;;;;;13.20;9.60;;;;;;;7.63;82.48;102564.03;5038573;28;20100;-79
2024/02/18 04:13:01;;;;;;;16.38;9.88;;;;;;;7.69;82.53;102569.03;5039505;28;20045;-81
2024/02/18 04:15:28;;;;;;;14.15;10.02;;;;;;;7.70;82.54;102554.94;5040539;28;20053;-80
2024/02/18 04:17:55;;;;;;;17.55;10.07;;;;;;;7.62;82.54;102559.69;5039760;28;20085;-80
2024/02/18 04:20:21;;;;;;;12.43;9.40;;;;;;;7.62;82.56;102557.03;5039291;28;20049;-80
2024/02/18 04:22:48;;;;;;;12.77;8.82;;;;;;;7.58;82.40;102546.63;5039426;28;20049;-80
2024/02/18 04:25:15;;;;;;;14.63;9.90;;;;;;;7.55;82.25;102546.78;5038100;28;20060;-81
2024/02/18 04:27:42;;;;;;;13.82;9.68;;;;;;;7.58;82.01;102543.16;5038562;28;20057;-80
2024/02/18 04:30:11;;;;;;;14.35;9.23;;;;;;;7.60;82.22;102539.53;5039045;28;20472;-81
2024/02/18 04:32:37;;;;;;;15.65;9.43;;;;;;;7.65;81.87;102541.09;5039502;28;20052;-81
2024/02/18 04:35:04;;;;;;;13.50;8.98;;;;;;;7.64;82.72;102531.50;5038734;28;20096;-81
2024/02/18 04:37:31;;;;;;;15.95;9.27;;;;;;;7.62;83.00;102531.53;5038257;28;20053;-80
2024/02/18 04:39:58;;;;;;;14.05;9.10;;;;;;;7.59;83.14;102516.75;5038766;28;20527;-81
2024/02/18 04:42:25;;;;;;;13.63;9.88;;;;;;;7.62;83.03;102521.00;5039393;28;20088;-82
2024/02/18 04:44:51;;;;;;;18.33;9.52;;;;;;;7.65;82.18;102525.31;5038284;28;20081;-81
2024/02/18 04:47:19;;;;;;;15.70;9.52;;;;;;;7.64;82.15;102513.06;5038819;28;20080;-80
2024/02/18 04:49:46;;;;;;;14.05;9.43;;;;;;;7.64;82.82;102507.78;5038155;28;20132;-81
2024/02/18 04:52:12;;;;;;;13.75;9.80;;;;;;;7.62;82.47;102504.34;5039494;28;20049;-81
2024/02/18 04:54:39;;;;;;;12.23;8.25;;;;;;;7.66;82.68;102501.50;5041121;28;20080;-80
2024/02/18 04:57:06;;;;;;;14.60;9.13;;;;;;;7.65;81.37;102493.69;5041103;28;20139;-80
2024/02/18 04:59:33;;;;;;;16.27;9.40;;;;;;;7.63;81.43;102488.47;5045447;28;20049;-81
2024/02/18 05:02:00;;;;;;;14.07;9.23;;;;;;;7.59;81.76;102492.19;5046074;28;20105;-79
2024/02/18 05:04:31;;;;;;;13.13;8.68;;;;;;;7.57;82.16;102486.97;5039923;28;20124;-80
2024/02/18 05:06:58;;;;;;;12.82;8.52;;;;;;;7.52;82.55;102483.69;5030154;28;20099;-80
2024/02/18 05:09:25;;;;;;;11.82;8.50;;;;;;;7.57;82.20;102492.22;5037670;28;20049;-81
2024/02/18 05:11:51;;;;;;;13.18;8.70;;;;;;;7.60;82.34;102483.34;5037844;28;20115;-80
2024/02/18 05:14:18;;;;;;;14.27;8.57;;;;;;;7.64;82.01;102476.16;5036924;28;20045;-80
2024/02/18 05:16:45;;;;;;;13.27;8.65;;;;;;;7.61;82.52;102471.88;5037833;28;20117;-80
2024/02/18 05:19:12;;;;;;;11.10;8.32;;;;;;;7.60;82.71;102473.66;5037261;28;20081;-79
2024/02/18 05:21:41;;;;;;;13.60;8.50;;;;;;;7.64;82.88;102471.75;5036900;28;20065;-78
2024/02/18 05:24:08;;;;;;;14.82;8.93;;;;;;;7.67;82.51;102466.31;5039942;28;20124;-79
2024/02/18 05:26:35;;;;;;;12.60;8.38;;;;;;;7.62;82.88;102472.72;5043657;28;20084;-79
2024/02/18 05:29:02;;;;;;;14.65;8.95;;;;;;;7.62;nan;102484.13;5043061;28;20081;-79
2024/02/18 05:31:28;;;;;;;11.65;7.78;;;;;;;7.63;83.36;102477.06;5040658;28;20439;-80
2024/02/18 05:33:55;;;;;;;10.32;7.93;;;;;;;7.64;82.47;102468.25;5038089;28;20121;-80
2024/02/18 05:36:22;;;;;;;14.85;7.68;;;;;;;7.71;82.28;102469.66;5037423;28;20136;-79
2024/02/18 05:38:50;;;;;;;13.18;7.90;;;;;;;7.68;82.62;102468.06;5036544;28;20132;-81
2024/02/18 05:41:17;;;;;;;11.05;8.07;;;;;;;7.69;82.36;102468.91;5036938;28;20577;-80
2024/02/18 05:43:43;;;;;;;15.05;8.52;;;;;;;7.69;82.99;102469.75;5037497;28;20045;-80
2024/02/18 05:46:11;;;;;;;11.00;7.38;;;;;;;7.74;82.79;102467.75;5037268;28;20132;-83
2024/02/18 05:48:39;;;;;;;14.43;8.27;;;;;;;7.67;83.30;102474.22;5037495;28;20077;-80
2024/02/18 05:51:05;;;;;;;16.58;8.48;;;;;;;7.68;83.09;102469.81;5037923;28;20485;-81
2024/02/18 05:53:32;;;;;;;15.98;8.32;;;;;;;7.69;82.92;102469.75;5037884;28;20084;-82
2024/02/18 05:56:00;;;;;;;13.82;8.35;;;;;;;7.74;82.64;102459.84;5037435;28;20045;-83
2024/02/18 05:58:27;;;;;;;14.35;8.10;;;;;;;7.70;83.15;102457.44;5037935;28;20109;-82
2024/02/18 06:00:53;;;;;;;11.15;8.27;;;;;;;7.64;83.48;102453.31;5036667;28;20042;-81
2024/02/18 06:03:20;;;;;;;15.20;8.52;;;;;;;7.67;83.29;102457.56;5037265;28;20109;-80
2024/02/18 06:05:47;;;;;;;15.82;7.88;;;;;;;7.64;83.75;102445.41;5037387;28;20136;-80
2024/02/18 06:08:13;;;;;;;14.05;8.27;;;;;;;7.61;83.71;102453.44;5039788;28;20136;-80
2024/02/18 06:10:40;;;;;;;12.30;8.02;;;;;;;7.57;84.43;102447.44;5038694;28;20154;-80
2024/02/18 06:13:08;;;;;;;17.30;7.85;;;;;;;7.56;84.68;102447.53;5040599;28;20050;-80
2024/02/18 06:15:35;;;;;;;14.23;8.38;;;;;;;7.54;84.66;102450.22;5038720;28;20093;-80
2024/02/18 06:18:02;;;;;;;13.32;6.95;;;;;;;7.62;83.38;102439.31;5037196;28;20053;-80
2024/02/18 06:20:28;;;;;;;11.35;6.90;;;;;;;7.63;83.36;102434.91;5037422;28;20099;-82
2024/02/18 06:22:56;;;;;;;12.05;6.72;;;;;;;7.64;82.42;102426.09;5038190;28;20113;-80
2024/02/18 06:25:22;;;;;;;11.75;6.45;;;;;;;7.71;81.55;102430.16;5038053;28;20100;-82
2024/02/18 06:27:50;;;;;;;9.57;6.22;;;;;;;7.71;81.88;102411.69;5039620;28;20076;-82
2024/02/18 06:30:18;;;;;;;10.25;6.35;;;;;;;7.74;81.62;102409.78;5036143;28;20080;-78
2024/02/18 06:32:45;;;;;;;9.77;6.35;;;;;;;7.69;82.48;102417.06;5034638;28;20053;-79
2024/02/18 06:35:11;;;;;;;12.93;6.18;;;;;;;7.66;82.29;102411.91;5036206;28;20053;-79
2024/02/18 06:37:38;;;;;;;9.60;6.22;;;;;;;7.69;83.36;102424.09;5036857;28;20132;-79
2024/02/18 06:40:06;;;;;;;10.70;6.28;;;;;;;7.65;83.22;102419.91;5035042;28;20519;-77
2024/02/18 06:42:33;;;;;;;12.00;6.50;;;;;;;7.65;82.93;102419.91;5028226;28;20045;-80
2024/02/18 06:44:59;;;;;;;10.98;7.07;;;;;;;7.62;82.39;102414.75;5035604;28;20085;-80
2024/02/18 06:48:20;;;;;;;;;;;;;;;;;;;;;
2024/02/18 06:55:02;;;;;;;8.68;6.07;;;;;;;7.72;81.25;102398.44;4968666;28;20055;-81
2024/02/18 06:58:25;;;;;;;13.48;6.63;;;;;;;7.75;81.29;102397.44;4978225;28;20062;-82
2024/02/18 07:14:25;;;;;;;11.05;5.90;;;;;;;7.71;81.35;102372.16;5025574;28;20511;-82
2024/02/18 07:29:56;;;;;;;11.52;6.50;;;;;;;7.78;81.42;102368.31;5132829;23;20045;-79
2024/02/18 07:42:39;;;;;;;11.57;6.43;;;;;;;7.78;81.44;102340.19;5010192;28;20053;-80
2024/02/18 07:48:04;;;;;;;12.15;6.30;;;;;;;7.80;81.47;102345.38;5010772;28;20056;-82
2024/02/18 07:50:37;;;;;;;11.02;5.93;;;;;;;7.81;81.94;102342.69;5024780;28;20065;-82
2024/02/18 07:53:07;;;;;;;11.90;6.20;;;;;;;7.83;81.37;102329.41;5027728;28;20072;-81
2024/02/18 07:55:42;;;;;;;9.90;5.80;;;;;;;7.89;81.30;102334.38;5026459;28;20060;-81
2024/02/18 07:58:36;;;;;;;13.60;6.05;;;;;;;7.91;80.34;102323.78;5024434;28;20119;-79
2024/02/18 08:01:06;;;;;;;8.40;6.47;;;;;;;7.95;80.08;102320.91;5024313;28;20057;-82
2024/02/18 08:03:38;;;;;;;9.88;6.28;;;;;;;7.90;80.02;102312.34;5025625;28;20046;-80
2024/02/18 08:06:17;;;;;;;10.55;6.22;;;;;;;7.94;79.80;102310.44;5021944;28;20055;-81
2024/02/18 08:12:22;;;;;;;10.32;5.72;;;;;;;7.97;79.85;102297.97;5019849;28;20100;-80
2024/02/18 08:15:33;;;;;;;12.97;6.00;;;;;;;7.98;79.55;102291.75;5016198;28;20065;-80
2024/02/18 08:24:30;;;;;;;7.95;5.85;;;;;;;8.07;78.83;102279.88;5193352;22;20057;-81
2024/02/18 08:27:32;;;;;;;10.00;5.57;;;;;;;8.12;78.78;102280.50;5005439;28;20048;-80
2024/02/18 08:33:56;;;;;;;13.10;5.82;;;;;;;8.20;78.08;102259.03;5037566;28;20049;-81
2024/02/18 08:40:36;;;;;;;10.65;5.72;;;;;;;8.22;78.68;102236.09;5062706;28;20086;-80
2024/02/18 09:03:00;;;;;;;8.80;5.83;;;;;;;8.35;78.04;102216.91;4961415;29;20043;-84
2024/02/18 09:05:28;;;;;;;12.40;6.20;;;;;;;8.42;79.17;102206.91;5015371;28;20065;-84
2024/02/18 09:07:55;;;;;;;12.55;7.25;;;;;;;8.43;78.02;102208.59;5048255;28;20411;-82
2024/02/18 09:10:22;;;;;;;10.93;6.57;;;;;;;8.54;78.31;102211.53;5044971;28;20045;-83
2024/02/18 09:12:49;;;;;;;10.07;5.47;;;;;;;8.53;78.66;102201.91;5043166;28;20474;-83
2024/02/18 09:15:15;;;;;;;9.38;5.90;;;;;;;8.54;78.36;102190.41;5040655;28;20124;-83
2024/02/18 09:17:42;;;;;;;16.17;6.30;;;;;;;8.64;78.06;102190.75;5040722;28;20101;-82
2024/02/18 09:20:09;;;;;;;10.35;6.10;;;;;;;8.63;77.00;102189.06;5040478;28;20459;-81
2024/02/18 09:22:37;;;;;;;9.40;5.70;;;;;;;8.59;77.08;102183.09;5042976;28;20076;-82
2024/02/18 09:25:05;;;;;;;10.40;5.50;;;;;;;8.63;77.00;102194.34;5040606;28;20076;-82
2024/02/18 09:27:31;;;;;;;11.48;5.47;;;;;;;8.63;77.83;102182.94;5040902;28;20066;-82
2024/02/18 09:29:58;;;;;;;13.48;5.53;;;;;;;8.69;77.16;102185.25;5036918;28;20046;-83
2024/02/18 09:32:28;;;;;;;11.00;5.07;;;;;;;8.72;76.63;102183.28;5032759;28;20041;-84
2024/02/18 09:34:54;;;;;;;8.82;5.95;;;;;;;8.81;77.03;102179.28;5032597;28;20476;-82
2024/02/18 09:37:21;;;;;;;9.23;5.50;;;;;;;8.83;76.87;102174.78;5041286;28;20056;-83
2024/02/18 09:39:49;;;;;;;10.38;5.80;;;;;;;8.81;77.42;102171.38;5040543;28;20515;-83
2024/02/18 09:42:16;;;;;;;9.52;5.90;;;;;;;8.92;76.78;102163.69;5031243;28;20125;-82
2024/02/18 09:44:46;;;;;;;10.43;5.90;;;;;;;8.87;76.91;102155.19;5036864;28;20104;-82
2024/02/18 09:47:15;;;;;;;12.43;5.80;;;;;;;8.94;76.67;102148.63;5041219;28;20049;-81
2024/02/18 09:49:47;;;;;;;14.63;6.20;;;;;;;8.95;76.48;102142.41;5039347;28;20045;-82
2024/02/18 09:52:19;;;;;;;15.00;6.90;;;;;;;9.05;75.92;102134.81;5035980;28;20100;-82
2024/02/18 09:54:52;;;;;;;9.15;5.03;;;;;;;9.16;75.26;102134.22;5043159;28;20049;-82
2024/02/18 09:57:23;;;;;;;14.50;5.28;;;;;;;9.19;74.51;102126.09;5043132;28;20049;-82
2024/02/18 09:59:53;;;;;;;7.55;5.10;;;;;;;9.18;74.21;102119.13;5045398;28;20045;-82
2024/02/18 10:02:25;;;;;;;7.97;5.03;;;;;;;9.25;74.73;102116.03;5034130;28;20068;-82
2024/02/18 10:04:57;;;;;;;12.82;8.05;;;;;;;9.27;74.53;102115.94;5044327;28;20506;-83
2024/02/18 10:07:28;;;;;;;23.13;15.75;;;;;;;9.24;74.52;102122.28;5044206;28;20107;-83
2024/02/18 10:10:01;;;;;;;14.55;6.82;;;;;;;9.31;74.85;102104.25;5044305;28;20051;-81
2024/02/18 10:12:32;;;;;;;9.10;4.63;;;;;;;9.21;75.06;102105.75;5045110;28;20053;-83
2024/02/18 10:15:03;;;;;;;14.55;8.20;;;;;;;9.22;76.01;102108.28;5042306;28;20104;-82
2024/02/18 10:17:35;;;;;;;10.35;6.18;;;;;;;9.22;77.39;102112.72;5043080;28;20053;-83
2024/02/18 10:20:05;;;;;;;11.48;5.70;;;;;;;9.20;76.46;102104.06;5041619;28;20349;-83
2024/02/18 10:22:36;;;;;;;9.95;4.78;;;;;;;9.14;77.47;102091.19;5042299;28;20077;-83
2024/02/18 10:28:02;;;;;;;12.40;5.35;;;;;;;9.13;79.56;102094.78;5041724;28;20053;-80
2024/02/18 10:33:20;;;;;;;9.98;4.45;;;;;;;8.94;79.56;102082.63;5024173;28;20153;-81
2024/02/18 10:35:53;;;;;;;11.35;5.00;;;;;;;8.88;80.48;102080.31;5024434;28;20054;-81
2024/02/18 10:38:24;;;;;;;11.60;4.97;;;;;;;8.88;79.89;102090.03;5031655;28;20085;-79
2024/02/18 10:41:01;;;;;;;12.52;6.13;;;;;;;8.78;80.82;102087.06;5025293;28;20055;-81
2024/02/18 10:43:31;;;;;;;11.48;6.55;;;;;;;8.88;81.47;102082.09;5024231;28;20096;-81
2024/02/18 10:46:01;;;;;;;10.05;5.20;;;;;;;8.80;82.66;102077.28;5024839;28;20107;-81
2024/02/18 10:48:34;;;;;;;9.70;5.10;;;;;;;8.61;82.22;102070.38;5024800;28;20073;-82
2024/02/18 10:51:09;;;;;;;10.05;5.10;;;;;;;8.59;82.93;102071.41;5025097;28;20050;-80
2024/02/18 10:53:46;;;;;;;10.98;5.05;;;;;;;8.58;83.94;102060.03;5026451;28;20050;-82
2024/02/18 10:56:22;;;;;;;12.65;6.85;;;;;;;8.59;83.83;102053.78;5030273;28;20053;-82
2024/02/18 10:59:05;;;;;;;32.33;15.30;;;;;;;8.54;84.44;102053.22;5045068;28;20117;-79
2024/02/18 11:01:40;;;;;;;21.25;12.38;;;;;;;8.45;85.07;102052.88;5045623;28;20056;-83
2024/02/18 11:04:13;;;;;;;20.55;12.48;;;;;;;8.42;84.86;102045.97;4995527;28;20053;-83
2024/02/18 11:06:43;;;;;;;22.85;13.65;;;;;;;8.40;85.46;102032.03;5032612;28;20117;-82
2024/02/18 11:09:11;;;;;;;14.93;12.57;;;;;;;8.28;86.51;102035.31;5032110;28;20052;-82
2024/02/18 11:11:48;;;;;;;11.10;7.00;;;;;;;8.26;86.77;102027.50;5050756;28;20060;-82
2024/02/18 11:14:22;;;;;;;13.73;7.63;;;;;;;8.28;86.96;102024.75;5030018;28;20145;-81
2024/02/18 11:16:53;;;;;;;12.70;5.85;;;;;;;8.21;88.95;102033.94;5034573;28;20049;-83
2024/02/18 11:19:21;;;;;;;11.35;6.10;;;;;;;8.25;87.61;102043.38;5043636;28;20120;-84
2024/02/18 11:21:50;;;;;;;11.88;5.80;;;;;;;8.24;89.14;102039.91;5041177;28;20053;-82
2024/02/18 11:24:17;;;;;;;11.30;5.57;;;;;;;8.19;87.69;102035.81;5033617;28;20057;-81
2024/02/18 11:26:46;;;;;;;12.75;5.63;;;;;;;8.21;88.76;102047.13;5043161;28;20045;-83
2024/02/18 11:29:13;;;;;;;9.43;5.65;;;;;;;8.22;88.08;102041.78;5035320;28;20072;-83
2024/02/18 11:31:39;;;;;;;10.52;5.65;;;;;;;8.26;87.82;102047.72;5036769;28;20138;-81
2024/02/18 11:34:07;;;;;;;10.55;5.68;;;;;;;8.32;87.98;102048.25;5042489;28;20053;-83
2024/02/18 11:36:34;;;;;;;16.23;6.30;;;;;;;8.31;88.96;102051.81;5041591;28;20400;-83
2024/02/18 11:39:01;;;;;;;15.45;6.20;;;;;;;8.26;89.21;102045.06;5044418;28;20081;-84
2024/02/18 11:41:30;;;;;;;20.02;11.27;;;;;;;8.34;88.22;102045.50;5043141;28;20045;-83
2024/02/18 11:43:59;;;;;;;20.50;11.65;;;;;;;8.52;87.24;102036.59;5044747;28;20503;-83
2024/02/18 11:46:27;;;;;;;24.70;15.20;;;;;;;8.46;87.64;102023.75;5045740;28;20057;-83
2024/02/18 11:48:54;;;;;;;11.30;6.85;;;;;;;8.49;88.00;102020.97;5039669;28;20149;-83
2024/02/18 11:51:21;;;;;;;10.52;6.82;;;;;;;8.46;88.51;102001.81;5038728;28;20073;-84
2024/02/18 11:53:48;;;;;;;11.70;7.38;;;;;;;8.28;89.52;102001.03;5041130;28;20073;-83
2024/02/18 11:56:15;;;;;;;9.57;6.40;;;;;;;8.27;88.51;101997.53;5039523;28;20073;-83
2024/02/18 11:58:42;;;;;;;13.57;7.55;;;;;;;8.29;88.68;101987.75;5041577;28;20041;-85
2024/02/18 12:01:10;;;;;;;9.68;5.65;;;;;;;8.25;88.50;101986.22;5039784;28;20072;-82
2024/02/18 12:03:37;;;;;;;14.25;6.65;;;;;;;8.25;88.86;101985.34;5045663;28;20081;-83
2024/02/18 12:06:05;;;;;;;9.73;6.28;;;;;;;8.26;88.85;101985.28;5041276;28;20081;-83
2024/02/18 12:08:32;;;;;;;13.32;6.00;;;;;;;8.24;90.11;101973.13;5043658;28;20061;-84
2024/02/18 12:13:40;;;;;;;11.48;6.13;;;;;;;8.10;90.06;101964.19;5045981;28;20049;-84
2024/02/18 12:16:08;;;;;;;9.10;5.30;;;;;;;8.17;90.17;101954.16;5032798;28;20124;-85
2024/02/18 12:18:36;;;;;;;10.57;5.93;;;;;;;8.13;89.50;101946.50;5043531;28;20049;-82
2024/02/18 12:21:02;;;;;;;11.73;6.13;;;;;;;8.11;88.64;101944.78;5046262;28;20076;-83
2024/02/18 12:23:30;;;;;;;8.38;6.30;;;;;;;8.07;89.10;101937.97;5036516;28;20041;-82
2024/02/18 12:25:56;;;;;;;14.55;6.03;;;;;;;8.05;88.28;101924.06;5046894;28;20408;-81
2024/02/18 12:28:23;;;;;;;8.82;5.95;;;;;;;8.05;89.38;101912.66;5047449;28;20081;-83
2024/02/18 12:30:50;;;;;;;13.75;6.57;;;;;;;8.03;89.21;101907.44;5047276;28;20073;-84
2024/02/18 12:33:18;;;;;;;15.55;6.95;;;;;;;8.05;88.40;101897.69;5045063;28;20050;-83
2024/02/18 12:35:46;;;;;;;14.75;7.28;;;;;;;8.07;89.28;101895.81;5044707;28;20460;-83
2024/02/18 12:38:13;;;;;;;17.63;8.82;;;;;;;8.13;89.13;101886.72;5033382;28;20045;-82
2024/02/18 12:40:40;;;;;;;12.27;7.28;;;;;;;8.15;88.75;101895.38;5038396;28;20144;-84
2024/02/18 12:43:07;;;;;;;14.10;7.68;;;;;;;8.16;89.65;101885.69;5046548;28;20054;-85
2024/02/18 12:45:34;;;;;;;10.15;7.20;;;;;;;8.18;89.06;101866.19;5046795;28;20053;-83
2024/02/18 12:48:01;;;;;;;11.00;6.72;;;;;;;8.18;89.99;101857.44;5045688;28;20091;-83
2024/02/18 12:50:28;;;;;;;12.45;7.47;;;;;;;8.19;90.44;101854.72;5045538;28;20049;-84
2024/02/18 12:52:57;;;;;;;13.43;6.65;;;;;;;8.22;90.58;101845.78;5044377;28;20076;-84
2024/02/18 12:55:25;;;;;;;14.07;7.43;;;;;;;8.24;90.22;101850.00;5044240;28;20141;-86
2024/02/18 12:57:55;;;;;;;9.90;6.85;;;;;;;8.11;90.05;101835.84;5044491;28;20099;-85
2024/02/18 13:00:27;;;;;;;15.25;7.22;;;;;;;8.14;90.08;101832.19;5034380;28;20207;-84
2024/02/18 13:02:55;;;;;;;104.13;55.75;;;;;;;8.05;91.04;101823.88;5042995;28;20543;-83
2024/02/18 13:05:24;;;;;;;10.32;7.13;;;;;;;8.05;89.38;101818.59;5035018;28;20045;-84
2024/02/18 13:07:52;;;;;;;11.18;6.28;;;;;;;8.04;89.38;101809.00;5036503;28;20048;-82
2024/02/18 13:10:20;;;;;;;14.55;6.68;;;;;;;7.97;89.54;101806.78;5047866;28;20059;-85
2024/02/18 13:12:46;;;;;;;11.98;7.13;;;;;;;7.96;90.84;101802.47;5049509;28;20072;-86
2024/02/18 13:15:13;;;;;;;10.88;6.80;;;;;;;8.00;91.03;101804.00;5039599;28;20602;-83
2024/02/18 13:17:42;;;;;;;10.43;7.78;;;;;;;8.03;91.48;101798.53;5042805;28;20445;-82
2024/02/18 13:20:12;;;;;;;13.18;8.13;;;;;;;8.01;90.97;101798.63;5041807;28;20075;-84
2024/02/18 13:22:39;;;;;;;11.52;6.90;;;;;;;7.98;91.73;101798.78;5041705;28;20069;-82